Time,TemperatureF,DewpointF,PressureIn,WindDirection,WindDirectionDegrees,WindSpeedMPH,WindSpeedGustMPH,Humidity,HourlyPrecipIn,Conditions,Clouds,dailyrainin,SoftwareType,DateUTC
2013-03-12 00:00:00,40.4,38.0,30.13,SSE,161,3.5,3.5,91,0.00,CLR,FEW,0.00,WeatherDisplay:10.37,2013-03-12 04:00:00,
2013-03-12 00:01:00,40.4,38.3,30.13,SSE,161,1.2,1.2,92,0.00,CLR,FEW,0.00,WeatherDisplay:10.37,2013-03-12 04:01:00,
2013-03-12 00:02:00,40.4,38.3,30.13,SSE,157,1.2,1.2,92,0.00,CLR,FEW,0.00,WeatherDisplay:10.37,2013-03-12 04:02:00,
2013-03-12 00:07:00,40.2,37.8,30.13,South,180,4.6,4.6,91,0.00,CLR,FEW,0.00,WeatherDisplay:10.37,2013-03-12 04:07:00,
2013-03-12 00:12:00,40.3,37.9,30.13,South,188,1.2,1.2,91,0.00,CLR,FEW,0.00,WeatherDisplay:10.37,2013-03-12 04:12:00,
2013-03-12 00:17:00,40.3,38.2,30.12,East,83,4.0,4.0,92,0.00,CLR,FEW,0.00,WeatherDisplay:10.37,2013-03-12 04:17:00,
2013-03-12 00:22:00,40.5,38.6,30.11,SE,132,4.0,4.0,93,0.00,CLR,FEW,0.00,WeatherDisplay:10.37,2013-03-12 04:22:00,
2013-03-12 00:27:00,40.6,38.5,30.11,SE,136,2.3,2.3,92,0.00,CLR,FEW,0.00,WeatherDisplay:10.37,2013-03-12 04:27:00,
2013-03-12 00:32:00,40.5,38.4,30.11,SSW,206,3.0,3.0,92,0.00,CLR,FEW,0.00,WeatherDisplay:10.37,2013-03-12 04:32:00,
2013-03-12 00:37:00,40.6,38.5,30.12,WSW,239,0.0,0.0,92,0.00,CLR,FEW,0.00,WeatherDisplay:10.37,2013-03-12 04:37:00,
2013-03-12 00:42:00,40.5,38.4,30.12,East,90,2.3,2.3,92,0.00,CLR,FEW,0.00,WeatherDisplay:10.37,2013-03-12 04:42:00,
2013-03-12 00:47:00,40.2,37.8,30.12,South,174,2.3,2.3,91,0.00,CLR,FEW,0.00,WeatherDisplay:10.37,2013-03-12 04:47:00,
2013-03-12 00:52:00,40.4,38.5,30.12,South,186,3.5,3.5,93,0.00,CLR,FEW,0.00,WeatherDisplay:10.37,2013-03-12 04:52:00,
2013-03-12 00:57:00,40.6,38.5,30.11,SE,142,1.2,1.2,92,0.00,CLR,FEW,0.00,WeatherDisplay:10.37,2013-03-12 04:57:00,
2013-03-12 01:02:00,40.7,38.8,30.11,South,178,2.3,2.3,93,0.00,CLR,FEW,0.00,WeatherDisplay:10.37,2013-03-12 05:02:00,
2013-03-12 01:07:00,40.8,38.7,30.11,SW,236,1.2,0.0,92,0.00,CLR,FEW,0.00,WeatherDisplay:10.37,2013-03-12 05:07:00,
2013-03-12 01:12:00,40.9,39.0,30.11,ESE,119,3.5,3.5,93,0.00,CLR,FEW,0.00,WeatherDisplay:10.37,2013-03-12 05:12:00,
2013-03-12 01:17:00,40.8,38.7,30.11,SSE,167,1.2,1.2,92,0.00,CLR,FEW,0.00,WeatherDisplay:10.37,2013-03-12 05:17:00,
2013-03-12 01:22:00,40.6,38.5,30.11,SSE,159,6.9,6.9,92,0.00,CLR,FEW,0.00,WeatherDisplay:10.37,2013-03-12 05:22:00,
2013-03-12 01:27:00,40.4,38.0,30.11,SSE,163,3.5,3.5,91,0.00,CLR,FEW,0.00,WeatherDisplay:10.37,2013-03-12 05:27:00,
2013-03-12 01:32:00,40.2,38.1,30.11,South,185,1.0,0.0,92,0.00,CLR,FEW,0.00,WeatherDisplay:10.37,2013-03-12 05:32:00,
2013-03-12 01:37:00,40.3,38.4,30.11,South,172,4.6,4.6,93,0.00,CLR,FEW,0.00,WeatherDisplay:10.37,2013-03-12 05:37:00,
2013-03-12 01:42:00,40.4,38.5,30.10,South,172,3.5,3.5,93,0.00,CLR,FEW,0.00,WeatherDisplay:10.37,2013-03-12 05:42:00,
2013-03-12 01:47:00,40.3,38.4,30.10,SSE,159,5.8,5.8,93,0.00,CLR,FEW,0.00,WeatherDisplay:10.37,2013-03-12 05:47:00,
2013-03-12 01:52:00,40.6,39.0,30.10,WNW,296,1.2,1.2,94,0.00,CLR,FEW,0.00,WeatherDisplay:10.37,2013-03-12 05:52:00,
2013-03-12 01:57:00,40.3,38.4,30.10,SSE,165,4.6,4.6,93,0.00,CLR,FEW,0.00,WeatherDisplay:10.37,2013-03-12 05:57:00,
2013-03-12 02:02:00,40.1,38.2,30.09,SSW,196,3.0,3.0,93,0.00,CLR,FEW,0.00,WeatherDisplay:10.37,2013-03-12 06:02:00,
2013-03-12 02:08:00,40.1,38.5,30.09,South,180,2.3,2.3,94,0.00,CLR,FEW,0.00,WeatherDisplay:10.37,2013-03-12 06:08:00,
2013-03-12 02:13:00,40.1,38.5,30.09,ESE,105,1.2,0.0,94,0.00,CLR,FEW,0.00,WeatherDisplay:10.37,2013-03-12 06:13:00,
2013-03-12 02:18:00,40.0,38.4,30.09,ESE,105,0.0,0.0,94,0.00,CLR,FEW,0.00,WeatherDisplay:10.37,2013-03-12 06:18:00,
2013-03-12 02:23:00,40.0,38.4,30.09,ESE,105,0.0,0.0,94,0.00,CLR,FEW,0.00,WeatherDisplay:10.37,2013-03-12 06:23:00,
2013-03-12 02:28:00,39.6,38.0,30.09,ESE,105,0.0,0.0,94,0.00,CLR,FEW,0.00,WeatherDisplay:10.37,2013-03-12 06:28:00,
2013-03-12 02:33:00,39.4,37.8,30.09,ESE,105,0.0,0.0,94,0.00,CLR,FEW,0.00,WeatherDisplay:10.37,2013-03-12 06:33:00,
2013-03-12 02:37:00,39.1,37.5,30.08,ESE,105,0.0,0.0,94,0.00,CLR,FEW,0.00,WeatherDisplay:10.37,2013-03-12 06:37:00,
2013-03-12 02:42:00,39.1,37.8,30.08,ESE,105,0.0,0.1,95,0.00,CLR,FEW,0.00,WeatherDisplay:10.37,2013-03-12 06:42:00,
2013-03-12 02:47:00,39.5,38.5,30.07,ESE,105,2.3,2.3,96,0.00,CLR,FEW,0.00,WeatherDisplay:10.37,2013-03-12 06:47:00,
2013-03-12 02:52:00,39.4,38.1,30.07,ESE,105,0.0,0.0,95,0.00,CLR,FEW,0.00,WeatherDisplay:10.37,2013-03-12 06:52:00,
2013-03-12 02:57:00,39.2,37.9,30.07,ESE,105,1.2,1.2,95,0.00,CLR,FEW,0.00,WeatherDisplay:10.37,2013-03-12 06:57:00,
2013-03-12 03:02:00,39.1,37.8,30.07,ESE,105,0.0,0.0,95,0.00,CLR,FEW,0.00,WeatherDisplay:10.37,2013-03-12 07:02:00,
2013-03-12 03:07:00,39.1,37.8,30.07,ESE,105,1.2,0.0,95,0.00,CLR,FEW,0.00,WeatherDisplay:10.37,2013-03-12 07:07:00,
2013-03-12 03:12:00,39.1,37.8,30.07,ESE,105,0.0,0.0,95,0.00,CLR,FEW,0.00,WeatherDisplay:10.37,2013-03-12 07:12:00,
2013-03-12 03:17:00,39.1,37.8,30.07,ESE,105,0.0,0.0,95,0.00,CLR,FEW,0.00,WeatherDisplay:10.37,2013-03-12 07:17:00,
2013-03-12 03:22:00,38.9,37.6,30.07,ESE,105,0.0,0.0,95,0.00,CLR,FEW,0.00,WeatherDisplay:10.37,2013-03-12 07:22:00,
2013-03-12 03:27:00,38.9,37.9,30.07,ESE,105,0.0,0.0,96,0.00,CLR,FEW,0.00,WeatherDisplay:10.37,2013-03-12 07:27:00,
2013-03-12 03:32:00,38.9,37.9,30.06,ESE,105,0.0,0.0,96,0.00,CLR,FEW,0.00,WeatherDisplay:10.37,2013-03-12 07:32:00,
2013-03-12 03:37:00,38.9,37.9,30.06,ESE,105,0.0,0.0,96,0.00,CLR,FEW,0.00,WeatherDisplay:10.37,2013-03-12 07:37:00,
2013-03-12 03:42:00,38.9,37.9,30.06,ESE,105,0.0,0.0,96,0.00,CLR,FEW,0.00,WeatherDisplay:10.37,2013-03-12 07:42:00,
2013-03-12 03:47:00,38.7,37.7,30.06,ESE,105,0.0,0.0,96,0.00,CLR,FEW,0.00,WeatherDisplay:10.37,2013-03-12 07:47:00,
2013-03-12 03:52:00,39.0,38.0,30.06,ESE,105,1.2,0.0,96,0.00,CLR,FEW,0.00,WeatherDisplay:10.37,2013-03-12 07:52:00,
2013-03-12 03:57:00,39.1,38.1,30.06,ESE,105,0.0,0.0,96,0.00,CLR,FEW,0.00,WeatherDisplay:10.37,2013-03-12 07:57:00,
2013-03-12 04:02:00,39.1,38.1,30.06,ESE,105,0.0,0.0,96,0.00,CLR,FEW,0.00,WeatherDisplay:10.37,2013-03-12 08:02:00,
2013-03-12 04:07:00,39.4,38.6,30.05,ESE,105,0.0,0.0,97,0.00,CLR,FEW,0.00,WeatherDisplay:10.37,2013-03-12 08:07:00,
2013-03-12 04:12:00,39.7,38.9,30.05,NE,41,3.5,3.5,97,0.00,CLR,FEW,0.00,WeatherDisplay:10.37,2013-03-12 08:12:00,
2013-03-12 04:18:00,39.9,39.1,30.05,NE,42,0.0,0.0,97,0.00,CLR,FEW,0.00,WeatherDisplay:10.37,2013-03-12 08:18:00,
2013-03-12 04:23:00,39.9,39.1,30.05,NE,42,0.0,0.0,97,0.00,CLR,FEW,0.00,WeatherDisplay:10.37,2013-03-12 08:23:00,
2013-03-12 04:28:00,39.5,38.5,30.05,NE,42,0.0,0.0,96,0.00,CLR,FEW,0.00,WeatherDisplay:10.37,2013-03-12 08:28:00,
2013-03-12 04:33:00,39.2,38.2,30.05,NE,42,0.0,0.0,96,0.00,CLR,FEW,0.00,WeatherDisplay:10.37,2013-03-12 08:33:00,
2013-03-12 04:38:00,39.1,38.1,30.05,NE,42,0.0,0.0,96,0.00,CLR,FEW,0.00,WeatherDisplay:10.37,2013-03-12 08:38:00,
2013-03-12 04:43:00,39.1,38.1,30.04,NE,42,0.0,0.0,96,0.00,CLR,FEW,0.00,WeatherDisplay:10.37,2013-03-12 08:43:00,
2013-03-12 04:48:00,39.1,38.1,30.04,NE,42,0.0,0.0,96,0.00,CLR,FEW,0.00,WeatherDisplay:10.37,2013-03-12 08:48:00,
2013-03-12 04:53:00,39.5,38.7,30.04,NE,42,1.2,0.0,97,0.00,CLR,FEW,0.00,WeatherDisplay:10.37,2013-03-12 08:53:00,
2013-03-12 04:58:00,39.5,38.7,30.04,NE,42,0.0,0.0,97,0.00,CLR,FEW,0.00,WeatherDisplay:10.37,2013-03-12 08:58:00,
2013-03-12 05:03:00,39.3,38.5,30.04,NE,42,0.0,0.0,97,0.00,CLR,FEW,0.00,WeatherDisplay:10.37,2013-03-12 09:03:00,
2013-03-12 05:08:00,39.3,38.5,30.04,NE,42,0.0,0.0,97,0.00,CLR,FEW,0.00,WeatherDisplay:10.37,2013-03-12 09:08:00,
2013-03-12 05:13:00,39.2,38.4,30.03,NE,42,0.0,0.0,97,0.00,CLR,FEW,0.00,WeatherDisplay:10.37,2013-03-12 09:13:00,
2013-03-12 05:18:00,39.2,38.4,30.04,NE,42,0.0,0.0,97,0.00,CLR,FEW,0.00,WeatherDisplay:10.37,2013-03-12 09:18:00,
2013-03-12 05:23:00,39.2,38.4,30.05,NE,42,0.0,0.0,97,0.00,CLR,FEW,0.00,WeatherDisplay:10.37,2013-03-12 09:23:00,
2013-03-12 05:28:00,39.2,38.4,30.04,NE,42,0.0,0.0,97,0.00,CLR,FEW,0.00,WeatherDisplay:10.37,2013-03-12 09:28:00,
2013-03-12 05:33:00,39.3,38.5,30.05,NE,42,0.0,0.0,97,0.00,CLR,FEW,0.00,WeatherDisplay:10.37,2013-03-12 09:33:00,
2013-03-12 05:38:00,39.2,38.4,30.04,NE,42,1.2,0.0,97,0.00,CLR,FEW,0.00,WeatherDisplay:10.37,2013-03-12 09:38:00,
2013-03-12 05:43:00,39.0,38.2,30.04,NE,42,0.0,0.0,97,0.00,CLR,FEW,0.00,WeatherDisplay:10.37,2013-03-12 09:43:00,
2013-03-12 05:48:00,39.0,38.2,30.04,NE,42,0.0,0.0,97,0.00,CLR,FEW,0.00,WeatherDisplay:10.37,2013-03-12 09:48:00,
2013-03-12 05:53:00,38.9,38.1,30.04,NE,42,0.0,0.0,97,0.00,CLR,FEW,0.00,WeatherDisplay:10.37,2013-03-12 09:53:00,
2013-03-12 05:58:00,38.9,38.1,30.04,NE,42,0.0,0.0,97,0.00,CLR,FEW,0.00,WeatherDisplay:10.37,2013-03-12 09:58:00,
2013-03-12 06:03:00,38.8,38.0,30.04,NE,42,0.0,0.0,97,0.00,CLR,FEW,0.00,WeatherDisplay:10.37,2013-03-12 10:03:00,
2013-03-12 06:08:00,38.9,38.1,30.04,NE,42,0.0,0.0,97,0.00,CLR,FEW,0.00,WeatherDisplay:10.37,2013-03-12 10:08:00,
2013-03-12 06:13:00,38.9,38.1,30.03,NE,42,0.0,0.0,97,0.00,CLR,FEW,0.00,WeatherDisplay:10.37,2013-03-12 10:13:00,
2013-03-12 06:18:00,38.9,38.1,30.04,NE,42,0.0,0.0,97,0.00,CLR,FEW,0.00,WeatherDisplay:10.37,2013-03-12 10:18:00,
2013-03-12 06:23:00,39.0,38.2,30.03,NNE,18,0.0,0.0,97,0.00,CLR,FEW,0.00,WeatherDisplay:10.37,2013-03-12 10:23:00,
2013-03-12 06:28:00,38.9,38.1,30.03,NNE,18,0.0,0.0,97,0.00,CLR,FEW,0.00,WeatherDisplay:10.37,2013-03-12 10:28:00,
2013-03-12 06:33:00,39.0,38.2,30.03,NNE,18,0.0,0.0,97,0.00,CLR,FEW,0.00,WeatherDisplay:10.37,2013-03-12 10:33:00,
2013-03-12 06:38:00,39.0,38.2,30.03,NNE,18,0.0,0.0,97,0.00,CLR,FEW,0.00,WeatherDisplay:10.37,2013-03-12 10:38:00,
2013-03-12 06:43:00,39.2,38.4,30.03,NNE,18,0.0,0.0,97,0.00,CLR,FEW,0.00,WeatherDisplay:10.37,2013-03-12 10:43:00,
2013-03-12 06:48:00,39.2,38.4,30.03,NNE,18,0.0,0.0,97,0.00,CLR,FEW,0.00,WeatherDisplay:10.37,2013-03-12 10:48:00,
2013-03-12 06:53:00,39.4,38.6,30.03,NNE,18,0.0,0.0,97,0.00,CLR,FEW,0.00,WeatherDisplay:10.37,2013-03-12 10:53:00,
2013-03-12 06:58:00,39.4,38.6,30.03,NNE,18,0.0,0.0,97,0.00,CLR,FEW,0.00,WeatherDisplay:10.37,2013-03-12 10:58:00,
2013-03-12 07:03:00,39.4,38.6,30.02,NNE,18,0.0,0.0,97,0.00,CLR,FEW,0.00,WeatherDisplay:10.37,2013-03-12 11:03:00,
2013-03-12 07:08:00,39.4,38.6,30.02,NNE,18,0.0,0.0,97,0.00,CLR,FEW,0.00,WeatherDisplay:10.37,2013-03-12 11:08:00,
2013-03-12 07:13:00,39.4,38.6,30.02,NNE,18,0.0,0.0,97,0.00,CLR,FEW,0.00,WeatherDisplay:10.37,2013-03-12 11:13:00,
2013-03-12 07:18:00,39.3,38.5,30.02,NNE,18,0.0,0.0,97,0.00,CLR,FEW,0.00,WeatherDisplay:10.37,2013-03-12 11:18:00,
2013-03-12 07:23:00,39.1,38.3,30.02,NNE,18,0.0,0.0,97,0.00,CLR,FEW,0.00,WeatherDisplay:10.37,2013-03-12 11:23:00,
2013-03-12 07:28:00,39.3,38.5,30.02,NNE,18,0.0,0.0,97,0.00,CLR,FEW,0.00,WeatherDisplay:10.37,2013-03-12 11:28:00,
2013-03-12 07:33:00,39.6,38.8,30.02,North,11,0.0,0.0,97,0.00,CLR,FEW,0.00,WeatherDisplay:10.37,2013-03-12 11:33:00,
2013-03-12 07:38:00,39.5,38.7,30.03,North,11,0.0,0.0,97,0.00,CLR,FEW,0.00,WeatherDisplay:10.37,2013-03-12 11:38:00,
2013-03-12 07:43:00,39.5,38.7,30.03,North,11,0.0,0.0,97,0.00,CLR,FEW,0.00,WeatherDisplay:10.37,2013-03-12 11:43:00,
2013-03-12 07:48:00,39.5,38.7,30.02,North,11,0.0,0.0,97,0.00,CLR,FEW,0.00,WeatherDisplay:10.37,2013-03-12 11:48:00,
2013-03-12 07:53:00,39.5,38.7,30.02,North,11,0.0,0.0,97,0.00,CLR,FEW,0.00,WeatherDisplay:10.37,2013-03-12 11:53:00,
2013-03-12 07:58:00,39.4,38.6,30.02,North,11,0.0,0.0,97,0.00,CLR,FEW,0.00,WeatherDisplay:10.37,2013-03-12 11:58:00,
2013-03-12 08:03:00,39.6,38.8,30.02,North,11,0.0,0.0,97,0.00,CLR,FEW,0.00,WeatherDisplay:10.37,2013-03-12 12:03:00,
2013-03-12 08:08:00,39.8,39.0,30.02,North,11,0.0,0.0,97,0.00,CLR,FEW,0.00,WeatherDisplay:10.37,2013-03-12 12:08:00,
2013-03-12 08:13:00,39.8,39.3,30.02,North,11,0.0,0.0,98,0.00,CLR,FEW,0.00,WeatherDisplay:10.37,2013-03-12 12:13:00,
2013-03-12 08:18:00,40.0,39.5,30.02,North,11,0.0,0.0,98,0.00,CLR,FEW,0.00,WeatherDisplay:10.37,2013-03-12 12:18:00,
2013-03-12 08:23:00,40.2,39.4,30.02,North,11,0.0,0.0,97,0.00,CLR,FEW,0.00,WeatherDisplay:10.37,2013-03-12 12:23:00,
2013-03-12 08:28:00,40.2,39.4,30.02,North,11,0.0,0.0,97,0.00,CLR,FEW,0.00,WeatherDisplay:10.37,2013-03-12 12:28:00,
2013-03-12 08:33:00,40.5,40.0,30.02,North,11,0.0,0.0,98,0.00,CLR,FEW,0.00,WeatherDisplay:10.37,2013-03-12 12:33:00,
2013-03-12 08:38:00,40.5,40.0,30.01,North,11,0.0,0.0,98,0.00,CLR,FEW,0.00,WeatherDisplay:10.37,2013-03-12 12:38:00,
2013-03-12 08:43:00,40.7,40.2,30.02,SSE,156,0.0,0.3,98,0.00,CLR,FEW,0.00,WeatherDisplay:10.37,2013-03-12 12:43:00,
2013-03-12 08:48:00,41.0,40.5,30.02,SSE,156,0.0,0.0,98,0.00,CLR,FEW,0.00,WeatherDisplay:10.37,2013-03-12 12:48:00,
2013-03-12 08:53:00,40.9,40.1,30.01,SSE,156,0.0,0.0,97,0.00,CLR,FEW,0.00,WeatherDisplay:10.37,2013-03-12 12:53:00,
2013-03-12 08:58:00,41.5,41.0,30.01,SSE,156,1.2,0.0,98,0.00,CLR,FEW,0.00,WeatherDisplay:10.37,2013-03-12 12:58:00,
2013-03-12 09:03:00,41.6,41.1,30.02,SSE,156,1.2,0.0,98,0.00,CLR,FEW,0.00,WeatherDisplay:10.37,2013-03-12 13:03:00,
2013-03-12 09:08:00,41.4,40.9,30.01,SSE,156,0.0,0.0,98,0.01,RA,FEW,0.01,WeatherDisplay:10.37,2013-03-12 13:08:00,
2013-03-12 09:13:00,41.4,40.9,30.02,SSE,156,0.0,0.0,98,0.01,RA,FEW,0.01,WeatherDisplay:10.37,2013-03-12 13:13:00,
2013-03-12 09:18:00,41.6,41.1,30.01,SSE,156,1.2,0.0,98,0.01,CLR,FEW,0.01,WeatherDisplay:10.37,2013-03-12 13:18:00,
2013-03-12 09:23:00,41.9,41.4,30.02,SSE,156,0.0,0.1,98,0.01,CLR,FEW,0.01,WeatherDisplay:10.37,2013-03-12 13:23:00,
2013-03-12 09:28:00,42.0,41.5,30.01,SSE,156,0.0,0.0,98,0.01,CLR,FEW,0.01,WeatherDisplay:10.37,2013-03-12 13:28:00,
2013-03-12 09:33:00,42.0,41.5,30.01,SSE,156,0.0,0.0,98,0.02,RA,FEW,0.02,WeatherDisplay:10.37,2013-03-12 13:33:00,
2013-03-12 09:38:00,42.4,41.9,30.01,SSE,156,1.2,0.0,98,0.02,RA,FEW,0.02,WeatherDisplay:10.37,2013-03-12 13:38:00,
2013-03-12 09:43:00,42.7,42.2,30.01,South,169,1.2,0.0,98,0.02,,FEW,0.02,WeatherDisplay:10.37,2013-03-12 13:43:00,
2013-03-12 09:48:00,42.8,42.3,30.01,East,88,1.2,1.2,98,0.03,RA,FEW,0.03,WeatherDisplay:10.37,2013-03-12 13:48:00,
2013-03-12 09:53:00,43.1,42.6,30.01,East,88,1.0,1.0,98,0.03,RA,FEW,0.03,WeatherDisplay:10.37,2013-03-12 13:53:00,
2013-03-12 09:58:00,43.2,42.7,30.01,East,88,1.2,0.0,98,0.03,CLR,FEW,0.03,WeatherDisplay:10.37,2013-03-12 13:58:00,
2013-03-12 10:03:00,43.6,43.1,30.01,West,260,1.0,1.0,98,0.03,CLR,FEW,0.03,WeatherDisplay:10.37,2013-03-12 14:03:00,
2013-03-12 10:08:00,43.4,42.9,30.00,ENE,64,1.2,0.0,98,0.02,CLR,FEW,0.03,WeatherDisplay:10.37,2013-03-12 14:08:00,
2013-03-12 10:13:00,43.4,42.9,30.00,East,84,2.3,2.3,98,0.02,CLR,FEW,0.03,WeatherDisplay:10.37,2013-03-12 14:13:00,
2013-03-12 10:18:00,43.5,43.0,30.00,ESE,112,3.5,3.5,98,0.02,CLR,FEW,0.03,WeatherDisplay:10.37,2013-03-12 14:18:00,
2013-03-12 10:23:00,43.6,43.1,30.00,ESE,112,0.0,0.2,98,0.02,CLR,FEW,0.03,WeatherDisplay:10.37,2013-03-12 14:23:00,
2013-03-12 10:29:00,43.6,43.1,29.99,East,89,1.2,0.0,98,0.02,CLR,FEW,0.03,WeatherDisplay:10.37,2013-03-12 14:29:00,
2013-03-12 10:34:00,43.8,43.3,29.99,SSE,148,5.8,5.8,98,0.01,CLR,FEW,0.03,WeatherDisplay:10.37,2013-03-12 14:34:00,
2013-03-12 10:39:00,43.9,43.4,29.99,SSE,148,2.3,2.3,98,0.01,CLR,FEW,0.03,WeatherDisplay:10.37,2013-03-12 14:39:00,
2013-03-12 10:44:00,43.8,43.3,29.99,West,260,3.5,3.5,98,0.01,CLR,FEW,0.03,WeatherDisplay:10.37,2013-03-12 14:44:00,
2013-03-12 10:49:00,44.1,43.6,29.99,WSW,248,3.5,3.5,98,0.01,RA,FEW,0.04,WeatherDisplay:10.37,2013-03-12 14:49:00,
2013-03-12 10:53:00,44.1,43.6,29.99,SSW,202,1.2,1.2,98,0.01,RA,FEW,0.04,WeatherDisplay:10.37,2013-03-12 14:53:00,
2013-03-12 10:58:00,44.3,43.8,29.99,South,170,1.2,1.2,98,0.01,CLR,FEW,0.04,WeatherDisplay:10.37,2013-03-12 14:58:00,
2013-03-12 11:03:00,44.4,43.9,29.98,NE,44,2.3,2.3,98,0.01,CLR,FEW,0.04,WeatherDisplay:10.37,2013-03-12 15:03:00,
2013-03-12 11:08:00,44.7,44.2,29.98,East,81,1.2,0.0,98,0.01,CLR,FEW,0.04,WeatherDisplay:10.37,2013-03-12 15:08:00,
2013-03-12 11:13:00,44.6,44.1,29.98,East,81,0.0,0.0,98,0.01,CLR,FEW,0.04,WeatherDisplay:10.37,2013-03-12 15:13:00,
2013-03-12 11:18:00,44.7,44.2,29.97,East,97,4.0,4.0,98,0.01,CLR,FEW,0.04,WeatherDisplay:10.37,2013-03-12 15:18:00,
2013-03-12 11:24:00,45.2,44.7,29.97,SSE,147,2.3,2.3,98,0.01,CLR,FEW,0.04,WeatherDisplay:10.37,2013-03-12 15:24:00,
2013-03-12 11:29:00,44.9,44.4,29.97,ESE,107,4.0,4.0,98,0.01,CLR,FEW,0.04,WeatherDisplay:10.37,2013-03-12 15:29:00,
2013-03-12 11:34:00,45.5,45.0,29.97,ESE,107,1.2,1.2,98,0.01,CLR,FEW,0.04,WeatherDisplay:10.37,2013-03-12 15:34:00,
2013-03-12 11:39:00,45.1,44.6,29.97,SSE,148,3.5,3.5,98,0.01,CLR,FEW,0.04,WeatherDisplay:10.37,2013-03-12 15:39:00,
2013-03-12 11:44:00,45.0,44.5,29.96,South,177,2.3,2.3,98,0.01,CLR,FEW,0.04,WeatherDisplay:10.37,2013-03-12 15:44:00,
2013-03-12 11:49:00,45.2,44.7,29.96,East,93,2.3,2.3,98,0.00,CLR,FEW,0.04,WeatherDisplay:10.37,2013-03-12 15:49:00,
2013-03-12 11:54:00,45.2,44.7,29.96,SE,138,2.3,2.3,98,0.00,CLR,FEW,0.04,WeatherDisplay:10.37,2013-03-12 15:54:00,
2013-03-12 11:59:00,45.5,45.0,29.96,SE,131,3.5,3.5,98,0.00,CLR,FEW,0.04,WeatherDisplay:10.37,2013-03-12 15:59:00,
2013-03-12 12:04:00,45.6,45.1,29.95,ENE,63,1.2,1.2,98,0.00,CLR,FEW,0.04,WeatherDisplay:10.37,2013-03-12 16:04:00,
2013-03-12 12:09:00,45.6,45.1,29.95,SSE,157,2.3,2.3,98,0.00,CLR,FEW,0.04,WeatherDisplay:10.37,2013-03-12 16:09:00,
2013-03-12 12:14:00,46.0,45.5,29.95,SSE,149,2.3,2.3,98,0.00,CLR,FEW,0.04,WeatherDisplay:10.37,2013-03-12 16:14:00,
2013-03-12 12:18:00,46.1,45.6,29.94,East,96,1.2,1.2,98,0.01,RA,FEW,0.05,WeatherDisplay:10.37,2013-03-12 16:18:00,
2013-03-12 12:23:00,46.0,45.5,29.94,ESE,113,2.0,2.0,98,0.01,RA,FEW,0.05,WeatherDisplay:10.37,2013-03-12 16:23:00,
2013-03-12 12:28:00,46.2,45.7,29.94,SSE,157,1.2,1.2,98,0.01,CLR,FEW,0.05,WeatherDisplay:10.37,2013-03-12 16:28:00,
2013-03-12 12:33:00,46.2,45.4,29.94,NE,51,2.3,2.3,97,0.01,CLR,FEW,0.05,WeatherDisplay:10.37,2013-03-12 16:33:00,
2013-03-12 12:38:00,45.5,44.7,29.94,NE,49,1.2,1.2,97,0.01,CLR,FEW,0.05,WeatherDisplay:10.37,2013-03-12 16:38:00,
2013-03-12 12:43:00,45.5,44.7,29.94,SSE,155,3.5,3.5,97,0.01,CLR,FEW,0.05,WeatherDisplay:10.37,2013-03-12 16:43:00,
2013-03-12 12:48:00,45.5,44.7,29.93,SSE,155,2.0,2.0,97,0.01,CLR,FEW,0.05,WeatherDisplay:10.37,2013-03-12 16:48:00,
2013-03-12 12:53:00,45.4,44.6,29.93,SSW,194,1.2,0.0,97,0.01,CLR,FEW,0.05,WeatherDisplay:10.37,2013-03-12 16:53:00,
2013-03-12 12:59:00,45.2,44.4,29.93,SSW,194,0.0,0.0,97,0.01,CLR,FEW,0.05,WeatherDisplay:10.37,2013-03-12 16:59:00,
2013-03-12 13:04:00,45.5,44.7,29.93,NE,56,3.5,3.5,97,0.01,CLR,FEW,0.05,WeatherDisplay:10.37,2013-03-12 17:04:00,
2013-03-12 13:09:00,45.4,44.6,29.93,SE,140,2.0,2.0,97,0.01,CLR,FEW,0.05,WeatherDisplay:10.37,2013-03-12 17:09:00,
2013-03-12 13:14:00,45.8,45.3,29.92,ENE,65,3.5,3.5,98,0.01,CLR,FEW,0.05,WeatherDisplay:10.37,2013-03-12 17:14:00,
2013-03-12 13:19:00,46.4,45.9,29.92,East,94,3.5,3.5,98,0.00,CLR,FEW,0.05,WeatherDisplay:10.37,2013-03-12 17:19:00,
2013-03-12 13:24:00,46.3,45.8,29.92,South,173,0.0,0.0,98,0.00,CLR,FEW,0.05,WeatherDisplay:10.37,2013-03-12 17:24:00,
2013-03-12 13:29:00,46.2,45.7,29.92,SE,142,4.6,4.6,98,0.00,CLR,FEW,0.05,WeatherDisplay:10.37,2013-03-12 17:29:00,
2013-03-12 13:34:00,46.0,45.2,29.91,ESE,121,2.3,2.3,97,0.01,RA,FEW,0.06,WeatherDisplay:10.37,2013-03-12 17:34:00,
2013-03-12 13:39:00,46.0,45.2,29.91,NNE,27,2.3,2.3,97,0.01,RA,FEW,0.06,WeatherDisplay:10.37,2013-03-12 17:39:00,
2013-03-12 13:44:00,45.8,45.0,29.91,South,182,3.5,3.5,97,0.01,CLR,FEW,0.06,WeatherDisplay:10.37,2013-03-12 17:44:00,
2013-03-12 13:49:00,46.0,45.2,29.91,South,182,1.2,1.2,97,0.02,RA,FEW,0.07,WeatherDisplay:10.37,2013-03-12 17:49:00,
2013-03-12 13:54:00,45.6,44.8,29.91,West,277,3.5,3.5,97,0.02,RA,FEW,0.07,WeatherDisplay:10.37,2013-03-12 17:54:00,
2013-03-12 13:59:00,45.8,45.0,29.90,SSE,151,1.2,1.2,97,0.03,RA,FEW,0.08,WeatherDisplay:10.37,2013-03-12 17:59:00,
2013-03-12 14:04:00,46.2,45.4,29.90,SSE,157,4.0,4.0,97,0.04,RA,FEW,0.09,WeatherDisplay:10.37,2013-03-12 18:04:00,
2013-03-12 14:09:00,46.1,45.3,29.89,SE,126,1.2,1.2,97,0.04,RA,FEW,0.09,WeatherDisplay:10.37,2013-03-12 18:09:00,
2013-03-12 14:14:00,45.3,44.5,29.89,SE,126,1.2,0.0,97,0.05,RA,FEW,0.10,WeatherDisplay:10.37,2013-03-12 18:14:00,
2013-03-12 14:19:00,44.9,44.1,29.89,SE,126,0.0,0.0,97,0.06,RA,FEW,0.11,WeatherDisplay:10.37,2013-03-12 18:19:00,
2013-03-12 14:24:00,45.2,44.4,29.89,West,279,3.5,3.5,97,0.06,RA,FEW,0.11,WeatherDisplay:10.37,2013-03-12 18:24:00,
2013-03-12 14:29:00,45.7,45.2,29.88,ESE,109,3.5,3.5,98,0.07,RA,FEW,0.12,WeatherDisplay:10.37,2013-03-12 18:29:00,
2013-03-12 14:34:00,45.7,45.2,29.88,ESE,109,1.2,1.2,98,0.07,RA,FEW,0.13,WeatherDisplay:10.37,2013-03-12 18:34:00,
2013-03-12 14:39:00,45.9,45.4,29.88,SSE,148,2.3,2.3,98,0.07,RA,FEW,0.13,WeatherDisplay:10.37,2013-03-12 18:39:00,
2013-03-12 14:44:00,45.8,45.3,29.88,SSE,148,1.2,1.2,98,0.08,RA,FEW,0.14,WeatherDisplay:10.37,2013-03-12 18:44:00,
2013-03-12 14:49:00,46.0,45.5,29.87,SSW,202,2.3,2.3,98,0.07,RA,FEW,0.14,WeatherDisplay:10.37,2013-03-12 18:49:00,
2013-03-12 14:54:00,46.1,45.3,29.87,SE,140,1.0,1.0,97,0.08,RA,FEW,0.15,WeatherDisplay:10.37,2013-03-12 18:54:00,
2013-03-12 14:59:00,45.9,45.1,29.86,East,84,3.0,3.0,97,0.07,RA,FEW,0.15,WeatherDisplay:10.37,2013-03-12 18:59:00,
2013-03-12 15:04:00,45.7,44.9,29.86,SE,128,2.3,0.0,97,0.06,,FEW,0.16,WeatherDisplay:10.37,2013-03-12 19:04:00,
2013-03-12 15:09:00,45.9,45.1,29.86,SE,127,1.2,0.0,97,0.07,RA,FEW,0.16,WeatherDisplay:10.37,2013-03-12 19:09:00,
2013-03-12 15:14:00,45.8,45.3,29.86,South,190,3.5,3.5,98,0.06,RA,FEW,0.16,WeatherDisplay:10.37,2013-03-12 19:14:00,
2013-03-12 15:19:00,46.2,45.7,29.85,ESE,120,2.3,2.3,98,0.06,RA,FEW,0.17,WeatherDisplay:10.37,2013-03-12 19:19:00,
2013-03-12 15:24:00,46.3,45.8,29.85,NE,34,3.5,3.5,98,0.06,RA,FEW,0.17,WeatherDisplay:10.37,2013-03-12 19:24:00,
2013-03-12 15:29:00,46.0,45.2,29.84,SE,130,2.0,2.0,97,0.06,RA,FEW,0.18,WeatherDisplay:10.37,2013-03-12 19:29:00,
2013-03-12 15:34:00,46.2,45.4,29.84,SE,144,2.3,2.3,97,0.05,RA,FEW,0.18,WeatherDisplay:10.37,2013-03-12 19:34:00,
2013-03-12 15:39:00,46.7,46.2,29.84,South,185,4.6,4.6,98,0.05,,FEW,0.18,WeatherDisplay:10.37,2013-03-12 19:39:00,
2013-03-12 15:44:00,45.8,45.0,29.84,South,185,2.3,0.0,97,0.04,CLR,FEW,0.18,WeatherDisplay:10.37,2013-03-12 19:44:00,
2013-03-12 15:49:00,45.9,45.1,29.83,ENE,78,5.8,5.8,97,0.05,RA,FEW,0.19,WeatherDisplay:10.37,2013-03-12 19:49:00,
2013-03-12 15:54:00,46.2,45.7,29.83,SE,137,4.0,4.0,98,0.04,RA,FEW,0.19,WeatherDisplay:10.37,2013-03-12 19:54:00,
2013-03-12 15:59:00,46.4,45.9,29.83,SE,130,3.5,3.5,98,0.04,CLR,FEW,0.19,WeatherDisplay:10.37,2013-03-12 19:59:00,
2013-03-12 16:04:00,46.1,45.3,29.83,East,94,3.5,3.5,97,0.05,RA,FEW,0.20,WeatherDisplay:10.37,2013-03-12 20:04:00,
2013-03-12 16:09:00,46.8,46.3,29.83,East,86,2.3,2.3,98,0.04,RA,FEW,0.20,WeatherDisplay:10.37,2013-03-12 20:09:00,
2013-03-12 16:15:00,46.5,46.0,29.82,ESE,111,2.3,2.3,98,0.04,RA,FEW,0.21,WeatherDisplay:10.37,2013-03-12 20:15:00,
2013-03-12 16:20:00,46.4,45.9,29.82,ESE,109,0.0,0.0,98,0.04,RA,FEW,0.21,WeatherDisplay:10.37,2013-03-12 20:20:00,
2013-03-12 16:25:00,46.4,45.9,29.81,ESE,117,3.5,3.5,98,0.04,CLR,FEW,0.21,WeatherDisplay:10.37,2013-03-12 20:25:00,
2013-03-12 16:30:00,46.7,46.2,29.81,ESE,109,1.2,1.2,98,0.04,RA,FEW,0.22,WeatherDisplay:10.37,2013-03-12 20:30:00,
2013-03-12 16:35:00,46.5,46.0,29.81,ESE,109,0.0,0.0,98,0.05,RA,FEW,0.23,WeatherDisplay:10.37,2013-03-12 20:35:00,
2013-03-12 16:40:00,46.5,46.0,29.81,ENE,59,1.2,0.0,98,0.05,RA,FEW,0.23,WeatherDisplay:10.37,2013-03-12 20:40:00,
2013-03-12 16:44:00,46.1,45.3,29.81,ENE,59,0.0,0.0,97,0.06,RA,FEW,0.24,WeatherDisplay:10.37,2013-03-12 20:44:00,
2013-03-12 16:49:00,46.1,45.3,29.80,ENE,59,1.2,1.2,97,0.05,RA,FEW,0.24,WeatherDisplay:10.37,2013-03-12 20:49:00,
2013-03-12 16:54:00,46.0,45.2,29.80,SE,128,4.6,4.6,97,0.05,CLR,FEW,0.24,WeatherDisplay:10.37,2013-03-12 20:54:00,
2013-03-12 16:59:00,46.5,46.0,29.79,ENE,69,2.3,2.3,98,0.06,RA,FEW,0.25,WeatherDisplay:10.37,2013-03-12 20:59:00,
2013-03-12 17:04:00,46.4,45.9,29.79,ENE,69,1.0,0.0,98,0.05,RA,FEW,0.25,WeatherDisplay:10.37,2013-03-12 21:04:00,
2013-03-12 17:09:00,46.9,46.4,29.79,ESE,119,3.5,3.5,98,0.05,CLR,FEW,0.25,WeatherDisplay:10.37,2013-03-12 21:09:00,
2013-03-12 17:14:00,46.9,46.4,29.78,ENE,69,1.2,0.0,98,0.04,CLR,FEW,0.25,WeatherDisplay:10.37,2013-03-12 21:14:00,
2013-03-12 17:19:00,46.6,46.1,29.78,East,87,1.2,1.2,98,0.05,RA,FEW,0.26,WeatherDisplay:10.37,2013-03-12 21:19:00,
2013-03-12 17:24:00,46.5,46.0,29.78,East,87,2.3,2.3,98,0.05,RA,FEW,0.26,WeatherDisplay:10.37,2013-03-12 21:24:00,
2013-03-12 17:29:00,46.5,46.0,29.77,East,87,1.2,0.0,98,0.05,RA,FEW,0.27,WeatherDisplay:10.37,2013-03-12 21:29:00,
2013-03-12 17:34:00,46.4,45.9,29.77,SE,135,3.5,3.5,98,0.04,RA,FEW,0.27,WeatherDisplay:10.37,2013-03-12 21:34:00,
2013-03-12 17:39:00,46.1,45.6,29.77,East,98,0.0,0.0,98,0.05,RA,FEW,0.28,WeatherDisplay:10.37,2013-03-12 21:39:00,
2013-03-12 17:45:00,46.8,46.3,29.77,SSE,151,6.9,6.9,98,0.04,RA,FEW,0.28,WeatherDisplay:10.37,2013-03-12 21:45:00,
2013-03-12 17:50:00,46.9,46.4,29.76,SSE,151,2.3,2.3,98,0.05,RA,FEW,0.29,WeatherDisplay:10.37,2013-03-12 21:50:00,
2013-03-12 17:55:00,46.9,46.4,29.76,SSE,151,3.5,3.5,98,0.06,RA,FEW,0.30,WeatherDisplay:10.37,2013-03-12 21:55:00,
2013-03-12 18:00:00,46.7,46.2,29.76,NNE,25,1.2,0.0,98,0.06,RA,FEW,0.31,WeatherDisplay:10.37,2013-03-12 22:00:00,
2013-03-12 18:05:00,46.8,46.3,29.76,East,80,3.5,3.5,98,0.06,RA,FEW,0.31,WeatherDisplay:10.37,2013-03-12 22:05:00,
2013-03-12 18:09:00,46.8,46.3,29.76,East,80,2.3,2.3,98,0.07,RA,FEW,0.32,WeatherDisplay:10.37,2013-03-12 22:09:00,
2013-03-12 18:14:00,46.9,46.4,29.75,ESE,114,1.2,1.2,98,0.07,RA,FEW,0.32,WeatherDisplay:10.37,2013-03-12 22:14:00,
2013-03-12 18:20:00,47.0,46.5,29.75,East,96,4.6,4.6,98,0.07,RA,FEW,0.33,WeatherDisplay:10.37,2013-03-12 22:20:00,
2013-03-12 18:25:00,47.0,46.5,29.75,East,96,0.0,0.0,98,0.08,RA,FEW,0.34,WeatherDisplay:10.37,2013-03-12 22:25:00,
2013-03-12 18:30:00,46.9,46.4,29.74,East,96,1.2,1.2,98,0.08,RA,FEW,0.35,WeatherDisplay:10.37,2013-03-12 22:30:00,
2013-03-12 18:35:00,46.8,46.3,29.74,East,96,2.3,2.3,98,0.09,RA,FEW,0.37,WeatherDisplay:10.37,2013-03-12 22:35:00,
2013-03-12 18:40:00,47.0,46.5,29.73,NE,35,4.0,4.0,98,0.09,RA,FEW,0.38,WeatherDisplay:10.37,2013-03-12 22:40:00,
2013-03-12 18:45:00,46.9,46.4,29.73,ESE,119,1.2,1.2,98,0.11,RA,FEW,0.39,WeatherDisplay:10.37,2013-03-12 22:45:00,
2013-03-12 18:50:00,47.0,46.5,29.73,ESE,119,2.3,2.3,98,0.12,RA,FEW,0.41,WeatherDisplay:10.37,2013-03-12 22:50:00,
2013-03-12 18:55:00,46.9,46.4,29.72,East,84,2.3,2.3,98,0.12,RA,FEW,0.42,WeatherDisplay:10.37,2013-03-12 22:55:00,
2013-03-12 19:00:00,47.0,46.5,29.72,East,90,2.3,2.3,98,0.13,RA,FEW,0.44,WeatherDisplay:10.37,2013-03-12 23:00:00,
2013-03-12 19:05:00,47.0,46.5,29.72,NE,52,3.5,3.5,98,0.14,RA,FEW,0.45,WeatherDisplay:10.37,2013-03-12 23:05:00,
2013-03-12 19:10:00,46.9,46.4,29.71,NE,49,3.5,3.5,98,0.14,RA,FEW,0.48,WeatherDisplay:10.37,2013-03-12 23:10:00,
2013-03-12 19:15:00,46.7,46.2,29.71,East,86,3.5,3.5,98,0.17,RA,FEW,0.49,WeatherDisplay:10.37,2013-03-12 23:15:00,
2013-03-12 19:20:00,46.5,46.0,29.72,ENE,71,0.0,1.0,98,0.16,RA,FEW,0.49,WeatherDisplay:10.37,2013-03-12 23:20:00,
2013-03-12 19:25:00,46.9,46.4,29.72,NE,44,4.6,4.6,98,0.16,RA,FEW,0.50,WeatherDisplay:10.37,2013-03-12 23:25:00,
2013-03-12 19:30:00,46.9,46.4,29.72,East,99,2.3,0.0,98,0.16,RA,FEW,0.51,WeatherDisplay:10.37,2013-03-12 23:30:00,
2013-03-12 19:35:00,46.8,46.3,29.71,East,99,2.3,2.3,98,0.15,RA,FEW,0.51,WeatherDisplay:10.37,2013-03-12 23:35:00,
2013-03-12 19:40:00,46.6,46.1,29.71,ESE,111,4.0,4.0,98,0.15,RA,FEW,0.52,WeatherDisplay:10.37,2013-03-12 23:40:00,
2013-03-12 19:45:00,46.1,45.6,29.72,NNW,336,3.5,3.5,98,0.13,RA,FEW,0.52,WeatherDisplay:10.37,2013-03-12 23:45:00,
2013-03-12 19:50:00,45.3,44.5,29.72,South,173,4.0,4.0,97,0.11,,FEW,0.52,WeatherDisplay:10.37,2013-03-12 23:50:00,
2013-03-12 19:55:00,45.9,45.4,29.71,SE,137,3.5,3.5,98,0.11,RA,FEW,0.53,WeatherDisplay:10.37,2013-03-12 23:55:00,
2013-03-12 20:00:00,46.1,45.6,29.72,SE,136,1.2,1.2,98,0.09,RA,FEW,0.53,WeatherDisplay:10.37,2013-03-13 00:00:00,
2013-03-12 20:05:00,46.1,45.6,29.72,SE,140,2.3,2.3,98,0.09,RA,FEW,0.54,WeatherDisplay:10.37,2013-03-13 00:05:00,
2013-03-12 20:10:00,46.0,45.5,29.71,South,173,3.5,3.5,98,0.08,RA,FEW,0.54,WeatherDisplay:10.37,2013-03-13 00:10:00,
2013-03-12 20:15:00,45.6,45.1,29.71,South,173,0.0,0.0,98,0.05,,FEW,0.54,WeatherDisplay:10.37,2013-03-13 00:15:00,
2013-03-12 20:20:00,45.2,44.7,29.71,South,173,2.3,0.0,98,0.06,RA,FEW,0.55,WeatherDisplay:10.37,2013-03-13 00:20:00,
2013-03-12 20:25:00,45.0,44.5,29.71,West,263,3.5,3.5,98,0.05,RA,FEW,0.55,WeatherDisplay:10.37,2013-03-13 00:25:00,
2013-03-12 20:30:00,45.6,45.1,29.71,SSW,208,0.0,0.0,98,0.05,RA,FEW,0.56,WeatherDisplay:10.37,2013-03-13 00:30:00,
2013-03-12 20:35:00,45.1,44.6,29.71,ESE,112,1.0,1.0,98,0.05,RA,FEW,0.56,WeatherDisplay:10.37,2013-03-13 00:35:00,
2013-03-12 20:40:00,45.0,44.5,29.71,South,186,3.5,3.5,98,0.04,,FEW,0.56,WeatherDisplay:10.37,2013-03-13 00:40:00,
2013-03-12 20:45:00,45.9,45.4,29.71,SSE,159,6.9,6.9,98,0.04,CLR,FEW,0.56,WeatherDisplay:10.37,2013-03-13 00:45:00,
2013-03-12 20:50:00,46.1,45.6,29.71,South,185,3.5,3.5,98,0.04,CLR,FEW,0.56,WeatherDisplay:10.37,2013-03-13 00:50:00,
2013-03-12 20:55:00,46.1,45.6,29.71,ESE,119,3.5,0.0,98,0.04,RA,FEW,0.57,WeatherDisplay:10.37,2013-03-13 00:55:00,
2013-03-12 21:00:00,45.8,45.3,29.71,South,169,1.2,1.7,98,0.04,RA,FEW,0.57,WeatherDisplay:10.37,2013-03-13 01:00:00,
2013-03-12 21:04:00,45.9,45.4,29.71,South,169,2.3,2.3,98,0.03,CLR,FEW,0.57,WeatherDisplay:10.37,2013-03-13 01:04:00,
2013-03-12 21:09:00,45.6,45.1,29.71,ESE,104,6.0,6.0,98,0.03,CLR,FEW,0.57,WeatherDisplay:10.37,2013-03-13 01:09:00,
2013-03-12 21:14:00,45.8,45.3,29.71,ESE,115,3.5,3.5,98,0.03,CLR,FEW,0.57,WeatherDisplay:10.37,2013-03-13 01:14:00,
2013-03-12 21:19:00,45.9,45.4,29.71,ESE,120,3.5,0.0,98,0.03,RA,FEW,0.58,WeatherDisplay:10.37,2013-03-13 01:19:00,
2013-03-12 21:24:00,45.3,44.8,29.71,South,176,1.2,0.0,98,0.03,RA,FEW,0.58,WeatherDisplay:10.37,2013-03-13 01:24:00,
2013-03-12 21:29:00,44.6,44.1,29.71,South,176,3.5,0.0,98,0.02,,FEW,0.58,WeatherDisplay:10.37,2013-03-13 01:29:00,
2013-03-12 21:34:00,44.1,43.3,29.71,SSW,207,3.5,3.5,97,0.03,RA,FEW,0.59,WeatherDisplay:10.37,2013-03-13 01:34:00,
2013-03-12 21:39:00,44.1,43.6,29.72,South,171,2.3,2.3,98,0.03,RA,FEW,0.59,WeatherDisplay:10.37,2013-03-13 01:39:00,
2013-03-12 21:44:00,44.1,43.6,29.72,ESE,113,3.5,3.5,98,0.03,CLR,FEW,0.59,WeatherDisplay:10.37,2013-03-13 01:44:00,
2013-03-12 21:49:00,44.0,43.5,29.73,South,173,1.2,0.0,98,0.03,CLR,FEW,0.59,WeatherDisplay:10.37,2013-03-13 01:49:00,
2013-03-12 21:54:00,43.7,43.2,29.73,South,185,1.2,1.2,98,0.03,RA,FEW,0.60,WeatherDisplay:10.37,2013-03-13 01:54:00,
2013-03-12 21:59:00,44.0,43.5,29.73,NW,308,6.0,6.0,98,0.03,RA,FEW,0.60,WeatherDisplay:10.37,2013-03-13 01:59:00,
2013-03-12 22:04:00,45.1,44.6,29.74,West,265,3.5,3.5,98,0.03,CLR,FEW,0.60,WeatherDisplay:10.37,2013-03-13 02:04:00,
2013-03-12 22:09:00,44.3,43.8,29.74,West,275,2.3,2.3,98,0.04,RA,FEW,0.61,WeatherDisplay:10.37,2013-03-13 02:09:00,
2013-03-12 22:14:00,42.7,41.9,29.74,West,275,1.2,1.2,97,0.04,RA,FEW,0.61,WeatherDisplay:10.37,2013-03-13 02:14:00,
2013-03-12 22:19:00,41.9,41.1,29.74,West,275,1.2,0.0,97,0.03,CLR,FEW,0.61,WeatherDisplay:10.37,2013-03-13 02:19:00,
2013-03-12 22:24:00,41.1,40.3,29.74,West,275,0.0,0.0,97,0.03,CLR,FEW,0.61,WeatherDisplay:10.37,2013-03-13 02:24:00,
2013-03-12 22:29:00,40.6,39.8,29.75,West,275,1.2,0.0,97,0.03,CLR,FEW,0.61,WeatherDisplay:10.37,2013-03-13 02:29:00,
2013-03-12 22:34:00,40.3,39.5,29.75,West,281,2.3,0.0,97,0.02,CLR,FEW,0.61,WeatherDisplay:10.37,2013-03-13 02:34:00,
2013-03-12 22:39:00,40.1,39.3,29.75,West,281,1.2,0.0,97,0.02,CLR,FEW,0.61,WeatherDisplay:10.37,2013-03-13 02:39:00,
2013-03-12 22:44:00,39.8,39.0,29.75,WNW,292,2.3,2.3,97,0.02,CLR,FEW,0.61,WeatherDisplay:10.37,2013-03-13 02:44:00,
2013-03-12 22:49:00,39.3,38.5,29.76,WNW,290,1.2,0.0,97,0.02,CLR,FEW,0.61,WeatherDisplay:10.37,2013-03-13 02:49:00,
2013-03-12 22:54:00,38.8,38.0,29.76,WNW,290,1.2,0.0,97,0.01,CLR,FEW,0.61,WeatherDisplay:10.37,2013-03-13 02:54:00,
2013-03-12 22:59:00,38.4,37.6,29.76,WNW,290,1.2,0.0,97,0.01,CLR,FEW,0.61,WeatherDisplay:10.37,2013-03-13 02:59:00,
2013-03-12 23:04:00,38.5,38.0,29.76,SSW,209,2.3,2.3,98,0.01,CLR,FEW,0.61,WeatherDisplay:10.37,2013-03-13 03:04:00,
2013-03-12 23:09:00,38.4,37.6,29.76,WSW,253,2.0,2.0,97,0.00,CLR,FEW,0.61,WeatherDisplay:10.37,2013-03-13 03:09:00,
2013-03-12 23:14:00,38.1,37.3,29.76,West,275,1.2,1.2,97,0.00,CLR,FEW,0.61,WeatherDisplay:10.37,2013-03-13 03:14:00,
2013-03-12 23:19:00,37.8,37.0,29.76,West,275,2.3,2.3,97,0.00,CLR,FEW,0.61,WeatherDisplay:10.37,2013-03-13 03:19:00,
2013-03-12 23:24:00,37.5,36.7,29.76,West,275,2.3,2.3,97,0.00,CLR,FEW,0.61,WeatherDisplay:10.37,2013-03-13 03:24:00,
2013-03-12 23:29:00,37.5,37.0,29.76,South,175,2.3,2.3,98,0.00,CLR,FEW,0.61,WeatherDisplay:10.37,2013-03-13 03:29:00,
2013-03-12 23:34:00,37.5,37.0,29.76,SW,234,1.2,1.2,98,0.00,CLR,FEW,0.61,WeatherDisplay:10.37,2013-03-13 03:34:00,
2013-03-12 23:39:00,37.9,37.4,29.76,West,281,3.5,3.5,98,0.00,CLR,FEW,0.61,WeatherDisplay:10.37,2013-03-13 03:39:00,
2013-03-12 23:44:00,37.5,37.0,29.76,WSW,255,3.5,3.5,98,0.00,CLR,FEW,0.61,WeatherDisplay:10.37,2013-03-13 03:44:00,
2013-03-12 23:49:00,37.3,36.8,29.75,West,275,3.5,3.5,98,0.00,CLR,FEW,0.61,WeatherDisplay:10.37,2013-03-13 03:49:00,
2013-03-12 23:54:00,37.2,36.7,29.76,West,275,3.5,3.5,98,0.00,CLR,FEW,0.61,WeatherDisplay:10.37,2013-03-13 03:54:00,